Terminal Aerodrome Forecast
Issued by NWS

Home | Current Version | Previous Version | Text Only | Print | Product List | Glossary On
Versions: 1 2 3 4 5 6 7 8 9 10 11 12 13 14 15 16 17 18 19
034
FTUS43 KEAX 210812 AAA
TAFSTJ
TAF AMD
KSTJ 210812Z 2108/2206 29010KT P6SM BKN025
     FM211100 26012KT P6SM -SHRA BKN025
     FM211800 33010KT P6SM VCSH BKN015
     FM220000 32010KT P6SM BKN009=

USA.gov is the U.S. government's official web portal to all federal, state and local government web resources and services.